Round Lake, Indiana
Current Conditions -  °F | °C
As of 4:15 AM on Monday 24 Nov 2014 (Local Time) from KGWB Reporting Station
Drizzle Drizzle  
Wind Chill: 54°   Ceiling: 800
Heat Index: 54°   Visibility: 5mi
Dew Point: 50°   Wind: 13mph
Humidity: 88%   Direction: 210°SSW
Pressure: 29.17"   Gusts: 20mph
Location:  41.4608°N, 85.2531°W
Report Text: KGWB 240915Z AUTO 21011G17KT 5SM DZ OVC008 12/10 A2917 RMK AO2
Loading
Personal Weather Stations






























Interactive Weather Map New forecast layout! Learn more

10-Day Weather Forecast

Advertisements
Track Severe Weather on mobile